Close Search

Base
°C
Summit
°C

WEATHER AT A GLANCE

Image Slideshow

RMR Village

Revelstoke Mountain Resort -  RMR Village Webcam

Top of The Stoke

Revelstoke Mountain Resort -  Top of The Stoke Webcam

Top of Stellar

Revelstoke Mountain Resort -  Top of Stellar Webcam

Mackenzie Outpost

Revelstoke Mountain Resort -  Mackenzie Outpost Webcam

Ripper

Revelstoke Mountain Resort -  Ripper Webcam
Base
°C
Summit
°C
Wind (Summit)
km/h

Today's Forecast

Subpeak Weather

Time Avg. Air Temp Dew Point Avg. Rel Humidity Avg. 2 Min Wind Speed Max Gust Velocity MGV Time MGV Direction Avg. Spot Wind Velocity
2026-05-03 11:15:005° C-5° C48%12 km/h19 km/h11:13:00NW12 km/h
10:15:004° C-5° C51%3 km/h13 km/h10:12:00NE5 km/h
09:15:004° C-6° C51%13 km/h15 km/h09:15:00NW10 km/h
08:15:003° C-6° C52%10 km/h14 km/h08:15:00N7 km/h
07:15:003° C-6° C50%16 km/h18 km/h07:11:00NW16 km/h
06:15:003° C-6° C52%18 km/h21 km/h06:15:00W18 km/h
05:15:003° C-6° C50%17 km/h20 km/h05:13:00NW17 km/h
04:15:003° C-6° C50%21 km/h24 km/h04:13:00NW22 km/h
03:15:003° C-6° C50%16 km/h22 km/h03:13:00W17 km/h
02:15:004° C-6° C49%20 km/h22 km/h02:14:00W18 km/h
01:15:004° C-6° C49%13 km/h17 km/h01:11:00W14 km/h
00:15:004° C-6° C46%18 km/h20 km/h00:14:00W17 km/h
23:15:005° C-6° C46%20 km/h24 km/h23:12:00NW19 km/h
22:15:005° C-6° C44%15 km/h21 km/h22:11:00NW15 km/h
21:15:005° C-6° C43%18 km/h19 km/h21:15:00NW16 km/h
20:15:005° C-7° C43%13 km/h14 km/h20:15:00NW11 km/h
19:15:006° C-6° C44%8 km/h15 km/h19:13:00N7 km/h
18:15:006° C-5° C45%3 km/h16 km/h18:12:00E7 km/h
17:15:006° C-5° C45%6 km/h12 km/h17:14:00SW6 km/h
16:15:006° C-4° C49%12 km/h18 km/h16:14:00W11 km/h
15:15:005° C-4° C49%5 km/h14 km/h15:14:00NW6 km/h
14:15:005° C-5° C50%6 km/h18 km/h14:11:00NE9 km/h
13:15:005° C-5° C51%1 km/h16 km/h13:11:00W3 km/h
12:15:004° C-4° C55%11 km/h16 km/h12:15:00NW8 km/h

Time Avg. Air Temp Dew Point Avg. Rel Humidity Avg. 2 Min Wind Speed Max Gust Velocity MGV Time MGV Direction Avg. Spot Wind Velocity
2026-05-03 11:15:005° C-5° C48%12 km/h19 km/h11:13:00NW12 km/h
11:10:005° C-5° C49%10 km/h15 km/h11:09:00NW11 km/h
11:05:005° C-5° C49%7 km/h15 km/h11:01:00W7 km/h
11:00:005° C-5° C48%8 km/h12 km/h10:56:00W8 km/h
10:55:005° C-5° C49%10 km/h15 km/h10:55:00NW9 km/h
10:50:005° C-5° C50%10 km/h18 km/h10:48:00W11 km/h
10:45:004° C-5° C51%11 km/h14 km/h10:45:00NW10 km/h
10:40:004° C-5° C51%5 km/h12 km/h10:37:00N5 km/h
10:35:004° C-5° C51%6 km/h16 km/h10:32:00NW8 km/h
10:30:004° C-5° C50%12 km/h16 km/h10:26:00NW12 km/h
10:25:004° C-5° C51%12 km/h14 km/h10:25:00NW9 km/h
10:20:004° C-5° C51%8 km/h14 km/h10:20:00NW8 km/h
10:15:004° C-5° C51%3 km/h13 km/h10:12:00NE5 km/h

We value your privacy
We use cookies to enhance your browsing experience, serve personalized ads or content, and analyze our traffic. By clicking "Allow Cookies", you consent to our use of cookies. For additional details view our Privacy Policy.
Cookie preferences

You can control how your data is used on our website. Learn more below about the cookies we use by reviewing our Privacy Policy.

Your cookie preferences have been saved.